createdAt,value
2022-08-27T00:00:59.155Z,6.47
2022-08-27T00:03:30.938Z,6.47
2022-08-27T00:06:04.943Z,6.30
2022-08-27T00:08:39.022Z,5.35
2022-08-27T00:11:12.128Z,6.15
2022-08-27T00:13:44.823Z,6.18
2022-08-27T00:16:18.003Z,6.10
2022-08-27T00:18:50.106Z,5.65
2022-08-27T00:23:54.653Z,6.43
2022-08-27T00:28:58.850Z,6.80
2022-08-27T00:31:31.266Z,6.35
2022-08-27T00:34:03.123Z,6.00
2022-08-27T00:36:35.637Z,7.13
2022-08-27T00:41:40.934Z,6.20
2022-08-27T00:44:13.670Z,6.88
2022-08-27T00:46:59.484Z,6.47
2022-08-27T00:49:42.049Z,6.50
2022-08-27T00:52:27.980Z,6.43
2022-08-27T00:55:11.827Z,6.32
2022-08-27T00:57:45.304Z,7.05
2022-08-27T01:00:19.160Z,6.35
2022-08-27T01:02:52.012Z,6.20
2022-08-27T01:05:27.985Z,6.30
2022-08-27T01:08:11.793Z,6.72
2022-08-27T01:10:45.305Z,6.80
2022-08-27T01:13:22.138Z,6.60
2022-08-27T01:16:20.506Z,6.57
2022-08-27T01:18:54.711Z,6.70
2022-08-27T01:21:55.618Z,6.80
2022-08-27T01:24:42.706Z,6.65
2022-08-27T01:27:20.075Z,6.70
2022-08-27T01:29:52.509Z,7.18
2022-08-27T01:32:27.591Z,6.72
2022-08-27T01:35:00.897Z,7.18
2022-08-27T01:37:34.291Z,7.53
2022-08-27T01:40:08.603Z,6.93
2022-08-27T01:42:47.299Z,7.03
2022-08-27T01:45:25.096Z,6.85
2022-08-27T01:47:59.695Z,7.07
2022-08-27T01:50:35.997Z,6.80
2022-08-27T01:53:16.943Z,6.88
2022-08-27T01:55:52.110Z,6.80
2022-08-27T01:58:27.375Z,7.45
2022-08-27T02:01:05.773Z,6.85
2022-08-27T02:03:40.507Z,7.43
2022-08-27T02:06:14.035Z,7.20
2022-08-27T02:08:45.796Z,6.85
2022-08-27T02:11:18.485Z,6.68
2022-08-27T02:13:50.717Z,7.25
2022-08-27T02:16:22.545Z,6.63
2022-08-27T02:21:28.283Z,7.22
2022-08-27T02:26:32.670Z,6.90
2022-08-27T02:31:38.159Z,7.28
2022-08-27T02:34:10.736Z,7.90
2022-08-27T02:36:43.803Z,7.32
2022-08-27T02:39:16.005Z,7.18
2022-08-27T02:41:48.543Z,7.60
2022-08-27T02:44:21.129Z,7.88
2022-08-27T02:46:53.778Z,7.65
2022-08-27T02:49:25.688Z,7.32
2022-08-27T02:51:58.936Z,7.80
2022-08-27T02:54:30.932Z,8.40
2022-08-27T02:57:04.025Z,8.73
2022-08-27T02:59:37.277Z,8.85
2022-08-27T03:02:11.122Z,8.07
2022-08-27T03:04:42.927Z,8.57
2022-08-27T03:07:19.056Z,8.55
2022-08-27T03:09:52.168Z,7.82
2022-08-27T03:12:25.038Z,8.38
2022-08-27T03:14:56.843Z,7.82
2022-08-27T03:17:47.879Z,7.20
2022-08-27T03:20:19.973Z,8.07
2022-08-27T03:22:52.663Z,8.35
2022-08-27T03:27:57.333Z,8.93
2022-08-27T03:30:29.684Z,8.68
2022-08-27T03:35:34.271Z,7.75
2022-08-27T03:38:06.777Z,7.55
2022-08-27T03:40:39.563Z,8.50
2022-08-27T03:46:00.715Z,8.35
2022-08-27T03:48:35.362Z,8.60
2022-08-27T03:51:09.631Z,8.35
2022-08-27T03:53:44.349Z,8.85
2022-08-27T03:56:16.120Z,8.23
2022-08-27T03:58:48.700Z,8.02
2022-08-27T04:01:20.623Z,8.30
2022-08-27T04:03:53.361Z,8.40
2022-08-27T04:08:57.686Z,8.18
2022-08-27T04:11:29.605Z,8.45
2022-08-27T04:16:49.511Z,8.55
2022-08-27T04:19:28.026Z,7.80
2022-08-27T04:22:03.659Z,8.68
2022-08-27T04:24:37.788Z,8.40
2022-08-27T04:27:11.481Z,8.35
2022-08-27T04:29:43.738Z,8.48
2022-08-27T04:32:17.531Z,8.10
2022-08-27T04:34:49.830Z,9.07
2022-08-27T04:39:55.361Z,8.70
2022-08-27T04:45:00.085Z,8.40
2022-08-27T04:47:32.470Z,8.48
2022-08-27T04:52:40.826Z,8.77
2022-08-27T04:55:13.769Z,8.73
2022-08-27T04:57:45.497Z,9.75
2022-08-27T05:00:18.195Z,9.88
2022-08-27T05:02:50.349Z,9.15
2022-08-27T05:05:23.434Z,9.73
2022-08-27T05:07:55.985Z,9.50
2022-08-27T05:10:28.184Z,9.32
2022-08-27T05:13:00.162Z,9.75
2022-08-27T05:15:33.016Z,10.25
2022-08-27T05:18:07.019Z,9.15
2022-08-27T05:20:50.190Z,9.13
2022-08-27T05:23:22.153Z,9.45
2022-08-27T05:25:55.621Z,9.38
2022-08-27T05:28:28.758Z,11.85
2022-08-27T05:31:08.108Z,12.25
2022-08-27T05:33:41.272Z,8.88
2022-08-27T05:36:29.807Z,9.27
2022-08-27T05:39:05.475Z,8.82
2022-08-27T05:41:38.072Z,9.30
2022-08-27T05:49:35.267Z,9.10
2022-08-27T05:52:12.306Z,9.40
2022-08-27T05:54:44.290Z,9.02
2022-08-27T05:57:16.979Z,9.68
2022-08-27T06:02:47.292Z,10.00
2022-08-27T06:10:24.950Z,10.70
2022-08-27T06:12:57.217Z,11.68
2022-08-27T06:15:29.891Z,11.15
2022-08-27T06:20:34.976Z,12.02
2022-08-27T06:23:07.366Z,12.35
2022-08-27T06:25:41.573Z,12.43
2022-08-27T06:28:13.593Z,12.23
2022-08-27T06:30:46.343Z,12.20
2022-08-27T06:33:21.577Z,12.60
2022-08-27T06:35:53.338Z,13.77
2022-08-27T06:38:26.109Z,12.68
2022-08-27T06:40:59.548Z,11.73
2022-08-27T06:43:31.841Z,11.73
2022-08-27T06:48:40.656Z,10.85
2022-08-27T06:51:16.884Z,11.25
2022-08-27T06:53:49.737Z,11.63
2022-08-27T06:56:22.001Z,12.50
2022-08-27T06:59:00.034Z,11.18
2022-08-27T07:01:34.982Z,11.23
2022-08-27T07:04:10.715Z,11.07
2022-08-27T07:06:42.565Z,10.70
2022-08-27T07:11:47.542Z,11.80
2022-08-27T07:14:22.278Z,10.80
2022-08-27T07:16:54.029Z,11.18
2022-08-27T07:19:28.640Z,10.95
2022-08-27T07:22:01.249Z,10.32
2022-08-27T07:24:33.741Z,11.07
2022-08-27T07:29:38.447Z,9.95
2022-08-27T07:34:43.348Z,10.20
2022-08-27T07:37:15.095Z,10.05
2022-08-27T07:42:38.259Z,9.98
2022-08-27T07:45:11.211Z,10.23
2022-08-27T07:47:43.018Z,9.50
2022-08-27T07:50:15.734Z,10.85
2022-08-27T07:52:47.967Z,10.43
2022-08-27T07:55:20.050Z,10.27
2022-08-27T07:57:53.833Z,10.70
2022-08-27T08:00:25.600Z,10.38
2022-08-27T08:05:31.208Z,10.65
2022-08-27T08:08:03.858Z,11.10
2022-08-27T08:10:37.291Z,10.20
2022-08-27T08:13:09.592Z,10.02
2022-08-27T08:15:45.533Z,10.23
2022-08-27T08:18:17.791Z,10.77
2022-08-27T08:20:58.334Z,10.63
2022-08-27T08:23:33.245Z,10.57
2022-08-27T08:26:07.282Z,11.02
2022-08-27T08:28:40.537Z,11.18
2022-08-27T08:31:13.277Z,11.00
2022-08-27T08:33:48.030Z,9.52
2022-08-27T08:36:20.890Z,10.07
2022-08-27T08:38:53.784Z,10.63
2022-08-27T08:41:49.013Z,10.05
2022-08-27T08:44:44.187Z,10.35
2022-08-27T08:47:28.457Z,10.32
2022-08-27T08:50:20.936Z,10.05
2022-08-27T08:53:09.861Z,9.75
2022-08-27T08:55:51.920Z,10.27
2022-08-27T08:58:49.659Z,9.68
2022-08-27T09:01:22.326Z,9.75
2022-08-27T09:04:01.056Z,9.75
2022-08-27T09:07:13.297Z,10.35
2022-08-27T09:10:29.496Z,10.35
2022-08-27T09:13:05.256Z,10.35
2022-08-27T09:15:38.632Z,10.45
2022-08-27T09:18:14.733Z,9.90
2022-08-27T09:20:51.846Z,10.48
2022-08-27T09:23:40.293Z,10.75
2022-08-27T09:26:25.493Z,10.23
2022-08-27T09:29:16.378Z,10.07
2022-08-27T09:31:58.255Z,10.38
2022-08-27T09:34:39.436Z,9.38
2022-08-27T09:37:23.134Z,10.55
2022-08-27T09:40:24.679Z,10.52
2022-08-27T09:43:04.596Z,9.18
2022-08-27T09:45:48.278Z,10.02
2022-08-27T09:48:25.159Z,9.60
2022-08-27T09:51:21.777Z,10.10
2022-08-27T09:53:58.571Z,9.07
2022-08-27T09:56:33.041Z,9.05
2022-08-27T09:59:30.849Z,9.38
2022-08-27T10:02:17.515Z,8.88
2022-08-27T10:04:55.650Z,9.00
2022-08-27T10:07:41.909Z,9.27
2022-08-27T10:10:20.056Z,8.85
2022-08-27T10:13:01.882Z,8.20
2022-08-27T10:15:52.216Z,7.97
2022-08-27T10:21:28.964Z,9.10
2022-08-27T10:24:20.770Z,8.82
2022-08-27T10:27:02.443Z,7.88
2022-08-27T10:30:10.249Z,7.28
2022-08-27T10:33:02.915Z,7.15
2022-08-27T10:35:47.944Z,6.90
2022-08-27T10:39:06.829Z,6.95
2022-08-27T10:42:01.783Z,7.10
2022-08-27T10:45:08.890Z,6.93
2022-08-27T10:47:55.360Z,7.07
2022-08-27T10:50:42.224Z,6.80
2022-08-27T10:53:27.469Z,6.57
2022-08-27T10:56:17.662Z,6.95
2022-08-27T10:59:03.179Z,7.28
2022-08-27T11:01:47.317Z,6.82
2022-08-27T11:04:31.411Z,6.53
2022-08-27T11:07:10.200Z,7.45
2022-08-27T11:09:52.650Z,6.68
2022-08-27T11:12:43.267Z,6.22
2022-08-27T11:15:30.948Z,6.32
2022-08-27T11:18:16.591Z,5.47
2022-08-27T11:21:23.936Z,6.47
2022-08-27T11:24:34.834Z,6.60
2022-08-27T11:27:09.542Z,6.57
2022-08-27T11:29:48.834Z,6.78
2022-08-27T11:32:38.953Z,7.43
2022-08-27T11:35:26.380Z,8.00
2022-08-27T11:38:20.208Z,8.07
2022-08-27T11:41:05.965Z,8.25
2022-08-27T11:43:39.201Z,7.53
2022-08-27T11:46:11.997Z,8.80
2022-08-27T11:49:00.087Z,8.52
2022-08-27T11:51:38.380Z,8.30
2022-08-27T11:54:24.195Z,8.07
2022-08-27T11:56:55.987Z,7.93
2022-08-27T11:59:28.559Z,7.47
2022-08-27T12:02:26.151Z,8.40
2022-08-27T12:05:25.790Z,9.05
2022-08-27T12:07:59.728Z,8.07
2022-08-27T12:10:58.762Z,9.15
2022-08-27T12:13:45.142Z,8.35
2022-08-27T12:16:32.423Z,8.32
2022-08-27T12:19:22.409Z,8.20
2022-08-27T12:22:20.416Z,11.25
2022-08-27T12:24:56.150Z,8.77
2022-08-27T12:27:34.990Z,8.02
2022-08-27T12:30:27.082Z,7.65
2022-08-27T12:33:05.230Z,8.15
2022-08-27T12:35:47.272Z,8.23
2022-08-27T12:38:38.183Z,8.63
2022-08-27T12:41:10.950Z,8.55
2022-08-27T12:43:44.376Z,8.50
2022-08-27T12:46:20.029Z,7.82
2022-08-27T12:48:58.549Z,8.02
2022-08-27T12:51:47.660Z,8.65
2022-08-27T12:54:30.890Z,8.60
2022-08-27T12:57:20.817Z,8.40
2022-08-27T13:00:09.305Z,8.20
2022-08-27T13:02:52.977Z,8.00
2022-08-27T13:05:26.348Z,8.75
2022-08-27T13:07:59.274Z,8.88
2022-08-27T13:10:32.766Z,9.07
2022-08-27T13:13:11.245Z,9.48
2022-08-27T13:15:59.783Z,10.30
2022-08-27T13:18:33.109Z,11.10
2022-08-27T13:21:14.380Z,10.13
2022-08-27T13:23:57.134Z,11.00
2022-08-27T13:29:10.401Z,19.52
2022-08-27T13:31:44.147Z,11.77
2022-08-27T13:34:22.899Z,11.05
2022-08-27T13:37:06.496Z,11.23
2022-08-27T13:39:39.084Z,10.70
2022-08-27T13:42:11.786Z,10.38
2022-08-27T13:44:46.668Z,10.75
2022-08-27T13:47:26.659Z,10.48
2022-08-27T13:50:17.397Z,10.45
2022-08-27T13:53:20.493Z,9.10
2022-08-27T13:55:55.304Z,8.80
2022-08-27T13:58:31.360Z,7.82
2022-08-27T14:01:33.151Z,8.02
2022-08-27T14:04:09.756Z,7.30
2022-08-27T14:06:47.415Z,8.15
2022-08-27T14:09:27.285Z,8.50
2022-08-27T14:12:10.640Z,8.55
2022-08-27T14:14:43.394Z,8.52
2022-08-27T14:17:38.021Z,11.00
2022-08-27T14:20:16.192Z,8.55
2022-08-27T14:22:48.703Z,8.65
2022-08-27T14:25:21.571Z,8.43
2022-08-27T14:27:57.104Z,8.27
2022-08-27T14:30:35.540Z,9.32
2022-08-27T14:33:08.949Z,9.38
2022-08-27T14:35:48.079Z,10.25
2022-08-27T14:38:23.569Z,11.27
2022-08-27T14:40:58.071Z,9.40
2022-08-27T14:43:30.779Z,9.27
2022-08-27T14:46:07.069Z,8.30
2022-08-27T14:48:51.837Z,8.25
2022-08-27T14:51:27.695Z,7.95
2022-08-27T14:53:59.649Z,7.47
2022-08-27T14:56:35.384Z,8.15
2022-08-27T14:59:08.675Z,8.10
2022-08-27T15:01:45.880Z,7.72
2022-08-27T15:04:19.777Z,9.98
2022-08-27T15:06:56.856Z,8.95
2022-08-27T15:09:29.944Z,9.43
2022-08-27T15:12:01.993Z,7.75
2022-08-27T15:14:37.584Z,7.22
2022-08-27T15:17:20.065Z,6.03
2022-08-27T15:20:05.169Z,5.70
2022-08-27T15:22:40.173Z,4.32
2022-08-27T15:25:17.474Z,4.10
2022-08-27T15:27:49.517Z,3.80
2022-08-27T15:30:28.944Z,3.50
2022-08-27T15:33:00.868Z,3.47
2022-08-27T15:35:34.030Z,4.20
2022-08-27T15:38:06.884Z,3.58
2022-08-27T15:43:13.425Z,3.58
2022-08-27T15:45:45.675Z,3.47
2022-08-27T15:50:49.889Z,3.33
2022-08-27T15:53:25.210Z,3.53
2022-08-27T15:55:57.080Z,3.28
2022-08-27T16:01:08.408Z,3.47
2022-08-27T16:03:43.543Z,5.55
2022-08-27T16:06:19.466Z,3.70
2022-08-27T16:08:52.082Z,3.13
2022-08-27T16:11:24.789Z,3.15
2022-08-27T16:13:56.607Z,3.50
2022-08-27T16:16:32.069Z,3.65
2022-08-27T16:19:05.555Z,3.13
2022-08-27T16:21:38.207Z,2.80
2022-08-27T16:24:10.882Z,3.25
2022-08-27T16:26:42.782Z,3.08
2022-08-27T16:29:15.888Z,3.00
2022-08-27T16:31:48.289Z,3.33
2022-08-27T16:34:26.492Z,3.45
2022-08-27T16:36:58.348Z,2.65
2022-08-27T16:39:34.581Z,2.75
2022-08-27T16:42:10.129Z,3.10
2022-08-27T16:44:42.948Z,3.08
2022-08-27T16:47:14.823Z,2.97
2022-08-27T16:50:05.830Z,2.42
2022-08-27T16:52:37.602Z,3.00
2022-08-27T16:57:43.975Z,3.25
2022-08-27T17:02:48.485Z,3.00
2022-08-27T17:05:33.904Z,3.03
2022-08-27T17:08:11.730Z,3.03
2022-08-27T17:10:46.613Z,3.30
2022-08-27T17:13:23.221Z,3.30
2022-08-27T17:16:02.128Z,2.73
2022-08-27T17:18:34.857Z,3.03
2022-08-27T17:21:08.094Z,3.15
2022-08-27T17:23:46.446Z,2.72
2022-08-27T17:26:21.053Z,3.45
2022-08-27T17:28:53.954Z,2.92
2022-08-27T17:31:32.277Z,2.85
2022-08-27T17:34:07.420Z,3.03
2022-08-27T17:36:39.197Z,2.83
2022-08-27T17:41:46.997Z,3.33
2022-08-27T17:44:28.078Z,3.25
2022-08-27T17:47:02.929Z,3.38
2022-08-27T17:49:37.471Z,3.20
2022-08-27T17:52:14.361Z,3.22
2022-08-27T17:54:55.058Z,3.70
2022-08-27T17:57:40.185Z,3.45
2022-08-27T18:00:15.362Z,3.35
2022-08-27T18:02:50.100Z,3.28
2022-08-27T18:05:24.937Z,3.65
2022-08-27T18:07:57.780Z,3.42
2022-08-27T18:10:29.689Z,3.72
2022-08-27T18:15:38.410Z,3.42
2022-08-27T18:18:14.206Z,3.40
2022-08-27T18:20:46.166Z,3.28
2022-08-27T18:23:18.813Z,3.63
2022-08-27T18:25:51.577Z,3.90
2022-08-27T18:28:24.762Z,3.83
2022-08-27T18:30:56.728Z,3.90
2022-08-27T18:33:29.304Z,3.60
2022-08-27T18:36:01.109Z,3.10
2022-08-27T18:38:33.752Z,3.45
2022-08-27T18:41:06.416Z,3.22
2022-08-27T18:43:42.861Z,3.78
2022-08-27T18:46:15.500Z,3.97
2022-08-27T18:48:48.313Z,4.38
2022-08-27T18:53:52.875Z,3.92
2022-08-27T18:56:25.772Z,3.80
2022-08-27T18:58:57.987Z,4.28
2022-08-27T19:01:31.698Z,4.80
2022-08-27T19:04:05.584Z,3.80
2022-08-27T19:06:38.275Z,3.90
2022-08-27T19:09:11.150Z,3.78
2022-08-27T19:14:16.094Z,3.60
2022-08-27T19:16:53.780Z,3.65
2022-08-27T19:19:27.124Z,3.65
2022-08-27T19:22:01.021Z,3.47
2022-08-27T19:24:39.954Z,3.55
2022-08-27T19:27:12.755Z,3.70
2022-08-27T19:29:44.805Z,3.20
2022-08-27T19:32:18.910Z,3.20
2022-08-27T19:34:50.933Z,3.22
2022-08-27T19:37:29.874Z,3.35
2022-08-27T19:40:01.884Z,3.53
2022-08-27T19:42:34.246Z,3.58
2022-08-27T19:47:39.480Z,3.97
2022-08-27T19:50:16.258Z,3.60
2022-08-27T19:52:48.367Z,3.28
2022-08-27T19:55:21.523Z,3.60
2022-08-27T19:57:53.376Z,5.43
2022-08-27T20:00:27.700Z,3.47
2022-08-27T20:03:00.215Z,3.25
2022-08-27T20:08:05.558Z,3.33
2022-08-27T20:10:38.822Z,3.50
2022-08-27T20:13:11.880Z,3.60
2022-08-27T20:15:44.321Z,3.40
2022-08-27T20:18:19.643Z,3.17
2022-08-27T20:20:51.479Z,4.40
2022-08-27T20:23:25.189Z,3.92
2022-08-27T20:26:01.230Z,4.28
2022-08-27T20:28:39.304Z,3.60
2022-08-27T20:31:12.420Z,3.90
2022-08-27T20:33:44.519Z,3.95
2022-08-27T20:38:49.632Z,3.70
2022-08-27T20:41:22.556Z,4.13
2022-08-27T20:43:54.609Z,4.10
2022-08-27T20:46:30.419Z,4.05
2022-08-27T20:49:02.466Z,4.40
2022-08-27T20:54:35.584Z,3.75
2022-08-27T20:57:08.719Z,3.97
2022-08-27T20:59:59.913Z,3.92
2022-08-27T21:02:32.044Z,4.00
2022-08-27T21:05:11.967Z,3.88
2022-08-27T21:07:44.826Z,4.40
2022-08-27T21:10:19.001Z,5.18
2022-08-27T21:12:51.240Z,4.28
2022-08-27T21:15:23.516Z,4.38
2022-08-27T21:17:56.119Z,4.32
2022-08-27T21:20:28.710Z,4.88
2022-08-27T21:23:00.961Z,4.15
2022-08-27T21:25:33.571Z,4.40
2022-08-27T21:28:07.824Z,4.82
2022-08-27T21:30:39.673Z,4.75
2022-08-27T21:33:12.378Z,4.07
2022-08-27T21:38:17.426Z,4.20
2022-08-27T21:40:49.353Z,3.63
2022-08-27T21:43:22.557Z,4.57
2022-08-27T21:45:56.957Z,3.88
2022-08-27T21:48:29.764Z,4.13
2022-08-27T21:53:45.190Z,3.90
2022-08-27T21:56:16.931Z,4.03
2022-08-27T21:58:49.684Z,4.47
2022-08-27T22:03:55.557Z,4.15
2022-08-27T22:06:27.712Z,4.22
2022-08-27T22:08:59.996Z,4.30
2022-08-27T22:11:32.016Z,4.50
2022-08-27T22:16:36.548Z,5.07
2022-08-27T22:21:43.086Z,5.35
2022-08-27T22:24:15.214Z,4.55
2022-08-27T22:26:47.933Z,4.57
2022-08-27T22:31:52.288Z,4.63
2022-08-27T22:36:56.740Z,4.88
2022-08-27T22:39:29.233Z,5.18
2022-08-27T22:42:02.100Z,5.50
2022-08-27T22:47:06.716Z,5.07
2022-08-27T22:49:38.558Z,5.70
2022-08-27T22:52:11.690Z,4.78
2022-08-27T22:54:43.612Z,5.82
2022-08-27T22:59:47.891Z,6.05
2022-08-27T23:02:20.640Z,6.43
2022-08-27T23:07:28.567Z,7.07
2022-08-27T23:10:00.944Z,6.00
2022-08-27T23:12:38.801Z,5.97
2022-08-27T23:15:13.036Z,6.05
2022-08-27T23:17:45.270Z,6.18
2022-08-27T23:20:18.959Z,6.28
2022-08-27T23:22:53.352Z,6.05
2022-08-27T23:25:45.623Z,5.80
2022-08-27T23:28:18.539Z,5.47
2022-08-27T23:30:50.928Z,6.13
2022-08-27T23:33:23.635Z,5.47
2022-08-27T23:35:58.127Z,6.38
2022-08-27T23:38:30.992Z,6.72
2022-08-27T23:43:35.392Z,6.38
2022-08-27T23:46:07.258Z,6.03
2022-08-27T23:48:39.933Z,5.78
2022-08-27T23:51:11.756Z,6.05
2022-08-27T23:53:44.414Z,5.95
2022-08-27T23:56:16.431Z,5.97
